sensor_id;sensor_type;location;lat;lon;timestamp;P1;durP1;ratioP1;P2;durP2;ratioP2
2892;SDS011;1456;51.840;12.184;2023-04-25T00:00:38;0.60;;;0.60;;
2892;SDS011;1456;51.840;12.184;2023-04-25T00:03:05;0.60;;;0.60;;
2892;SDS011;1456;51.840;12.184;2023-04-25T00:05:30;1.03;;;1.03;;
2892;SDS011;1456;51.840;12.184;2023-04-25T00:07:56;0.40;;;0.30;;
2892;SDS011;1456;51.840;12.184;2023-04-25T00:10:23;0.60;;;0.60;;
2892;SDS011;1456;51.840;12.184;2023-04-25T00:13:07;0.43;;;0.43;;
2892;SDS011;1456;51.840;12.184;2023-04-25T00:15:33;0.30;;;0.30;;
2892;SDS011;1456;51.840;12.184;2023-04-25T00:18:01;0.87;;;0.87;;
2892;SDS011;1456;51.840;12.184;2023-04-25T00:20:27;0.50;;;0.50;;
2892;SDS011;1456;51.840;12.184;2023-04-25T00:22:56;0.60;;;0.60;;
2892;SDS011;1456;51.840;12.184;2023-04-25T00:25:23;0.40;;;0.40;;
2892;SDS011;1456;51.840;12.184;2023-04-25T00:27:49;0.30;;;0.20;;
2892;SDS011;1456;51.840;12.184;2023-04-25T00:32:52;0.50;;;0.40;;
2892;SDS011;1456;51.840;12.184;2023-04-25T00:35:18;0.40;;;0.30;;
2892;SDS011;1456;51.840;12.184;2023-04-25T00:37:44;0.73;;;0.73;;
2892;SDS011;1456;51.840;12.184;2023-04-25T00:40:10;0.40;;;0.30;;
2892;SDS011;1456;51.840;12.184;2023-04-25T00:42:37;2.33;;;1.07;;
2892;SDS011;1456;51.840;12.184;2023-04-25T00:45:04;0.63;;;0.40;;
2892;SDS011;1456;51.840;12.184;2023-04-25T00:47:38;0.40;;;0.40;;
2892;SDS011;1456;51.840;12.184;2023-04-25T00:50:05;0.43;;;0.43;;
2892;SDS011;1456;51.840;12.184;2023-04-25T00:52:34;0.37;;;0.37;;
2892;SDS011;1456;51.840;12.184;2023-04-25T00:55:00;0.30;;;0.30;;
2892;SDS011;1456;51.840;12.184;2023-04-25T00:57:26;1.03;;;0.80;;
2892;SDS011;1456;51.840;12.184;2023-04-25T00:59:57;4.33;;;0.77;;
2892;SDS011;1456;51.840;12.184;2023-04-25T01:02:24;0.50;;;0.50;;
2892;SDS011;1456;51.840;12.184;2023-04-25T01:04:52;0.40;;;0.40;;
2892;SDS011;1456;51.840;12.184;2023-04-25T01:07:18;0.50;;;0.43;;
2892;SDS011;1456;51.840;12.184;2023-04-25T01:09:44;1.33;;;0.67;;
2892;SDS011;1456;51.840;12.184;2023-04-25T01:12:10;1.60;;;1.50;;
2892;SDS011;1456;51.840;12.184;2023-04-25T01:14:37;0.73;;;0.70;;
2892;SDS011;1456;51.840;12.184;2023-04-25T01:17:03;0.80;;;0.80;;
2892;SDS011;1456;51.840;12.184;2023-04-25T01:19:30;0.67;;;0.63;;
2892;SDS011;1456;51.840;12.184;2023-04-25T01:21:56;2.80;;;0.83;;
2892;SDS011;1456;51.840;12.184;2023-04-25T01:24:22;0.40;;;0.40;;
2892;SDS011;1456;51.840;12.184;2023-04-25T01:26:48;0.50;;;0.50;;
2892;SDS011;1456;51.840;12.184;2023-04-25T01:29:22;0.60;;;0.60;;
2892;SDS011;1456;51.840;12.184;2023-04-25T01:31:49;0.60;;;0.60;;
2892;SDS011;1456;51.840;12.184;2023-04-25T01:34:23;0.40;;;0.40;;
2892;SDS011;1456;51.840;12.184;2023-04-25T01:36:49;1.60;;;0.40;;
2892;SDS011;1456;51.840;12.184;2023-04-25T01:39:17;0.30;;;0.20;;
2892;SDS011;1456;51.840;12.184;2023-04-25T01:41:44;0.63;;;0.63;;
2892;SDS011;1456;51.840;12.184;2023-04-25T01:46:49;2.23;;;0.80;;
2892;SDS011;1456;51.840;12.184;2023-04-25T01:49:14;0.77;;;0.77;;
2892;SDS011;1456;51.840;12.184;2023-04-25T01:51:41;0.60;;;0.60;;
2892;SDS011;1456;51.840;12.184;2023-04-25T01:54:08;0.57;;;0.30;;
2892;SDS011;1456;51.840;12.184;2023-04-25T01:56:38;0.30;;;0.30;;
2892;SDS011;1456;51.840;12.184;2023-04-25T02:01:50;0.30;;;0.20;;
2892;SDS011;1456;51.840;12.184;2023-04-25T02:04:16;1.23;;;0.30;;
2892;SDS011;1456;51.840;12.184;2023-04-25T02:06:42;1.43;;;1.40;;
2892;SDS011;1456;51.840;12.184;2023-04-25T02:09:07;3.13;;;1.00;;
2892;SDS011;1456;51.840;12.184;2023-04-25T02:11:33;0.40;;;0.30;;
2892;SDS011;1456;51.840;12.184;2023-04-25T02:14:00;3.67;;;1.97;;
2892;SDS011;1456;51.840;12.184;2023-04-25T02:16:25;0.83;;;0.60;;
2892;SDS011;1456;51.840;12.184;2023-04-25T02:18:53;0.40;;;0.40;;
2892;SDS011;1456;51.840;12.184;2023-04-25T02:21:19;0.57;;;0.57;;
2892;SDS011;1456;51.840;12.184;2023-04-25T02:23:44;0.50;;;0.40;;
2892;SDS011;1456;51.840;12.184;2023-04-25T02:26:13;0.63;;;0.60;;
2892;SDS011;1456;51.840;12.184;2023-04-25T02:28:39;0.77;;;0.77;;
2892;SDS011;1456;51.840;12.184;2023-04-25T02:31:06;1.87;;;0.63;;
2892;SDS011;1456;51.840;12.184;2023-04-25T02:33:32;0.80;;;0.50;;
2892;SDS011;1456;51.840;12.184;2023-04-25T02:35:59;1.00;;;1.00;;
2892;SDS011;1456;51.840;12.184;2023-04-25T02:38:27;1.13;;;0.93;;
2892;SDS011;1456;51.840;12.184;2023-04-25T02:40:53;1.13;;;0.93;;
2892;SDS011;1456;51.840;12.184;2023-04-25T02:43:21;0.33;;;0.27;;
2892;SDS011;1456;51.840;12.184;2023-04-25T02:45:49;0.90;;;0.43;;
2892;SDS011;1456;51.840;12.184;2023-04-25T02:48:16;0.40;;;0.40;;
2892;SDS011;1456;51.840;12.184;2023-04-25T02:50:43;0.70;;;0.70;;
2892;SDS011;1456;51.840;12.184;2023-04-25T02:53:11;3.27;;;1.80;;
2892;SDS011;1456;51.840;12.184;2023-04-25T02:55:44;0.60;;;0.57;;
2892;SDS011;1456;51.840;12.184;2023-04-25T02:58:10;0.40;;;0.40;;
2892;SDS011;1456;51.840;12.184;2023-04-25T03:00:37;0.30;;;0.27;;
2892;SDS011;1456;51.840;12.184;2023-04-25T03:03:04;0.40;;;0.40;;
2892;SDS011;1456;51.840;12.184;2023-04-25T03:05:30;2.13;;;2.03;;
2892;SDS011;1456;51.840;12.184;2023-04-25T03:07:58;0.40;;;0.40;;
2892;SDS011;1456;51.840;12.184;2023-04-25T03:10:24;0.40;;;0.30;;
2892;SDS011;1456;51.840;12.184;2023-04-25T03:12:50;1.07;;;1.07;;
2892;SDS011;1456;51.840;12.184;2023-04-25T03:15:18;1.00;;;0.90;;
2892;SDS011;1456;51.840;12.184;2023-04-25T03:17:45;0.40;;;0.40;;
2892;SDS011;1456;51.840;12.184;2023-04-25T03:20:16;1.07;;;1.03;;
2892;SDS011;1456;51.840;12.184;2023-04-25T03:22:48;0.60;;;0.50;;
2892;SDS011;1456;51.840;12.184;2023-04-25T03:25:14;1.10;;;0.90;;
2892;SDS011;1456;51.840;12.184;2023-04-25T03:27:39;0.40;;;0.30;;
2892;SDS011;1456;51.840;12.184;2023-04-25T03:30:05;2.50;;;0.70;;
2892;SDS011;1456;51.840;12.184;2023-04-25T03:32:37;1.27;;;0.57;;
2892;SDS011;1456;51.840;12.184;2023-04-25T03:35:03;0.40;;;0.33;;
2892;SDS011;1456;51.840;12.184;2023-04-25T03:37:30;1.97;;;0.73;;
2892;SDS011;1456;51.840;12.184;2023-04-25T03:39:56;1.60;;;0.50;;
2892;SDS011;1456;51.840;12.184;2023-04-25T03:42:23;0.30;;;0.30;;
2892;SDS011;1456;51.840;12.184;2023-04-25T03:44:49;0.40;;;0.30;;
2892;SDS011;1456;51.840;12.184;2023-04-25T03:47:17;2.20;;;1.10;;
2892;SDS011;1456;51.840;12.184;2023-04-25T03:49:44;0.30;;;0.20;;
2892;SDS011;1456;51.840;12.184;2023-04-25T03:52:10;0.60;;;0.60;;
2892;SDS011;1456;51.840;12.184;2023-04-25T03:54:36;0.50;;;0.50;;
2892;SDS011;1456;51.840;12.184;2023-04-25T03:57:03;1.67;;;0.40;;
2892;SDS011;1456;51.840;12.184;2023-04-25T03:59:29;1.53;;;1.40;;
2892;SDS011;1456;51.840;12.184;2023-04-25T04:01:55;0.43;;;0.43;;
2892;SDS011;1456;51.840;12.184;2023-04-25T04:04:21;2.00;;;1.13;;
2892;SDS011;1456;51.840;12.184;2023-04-25T04:06:46;0.70;;;0.70;;
2892;SDS011;1456;51.840;12.184;2023-04-25T04:09:12;2.20;;;0.97;;
2892;SDS011;1456;51.840;12.184;2023-04-25T04:11:38;0.50;;;0.50;;
2892;SDS011;1456;51.840;12.184;2023-04-25T04:14:10;0.40;;;0.40;;
2892;SDS011;1456;51.840;12.184;2023-04-25T04:16:45;0.97;;;0.97;;
2892;SDS011;1456;51.840;12.184;2023-04-25T04:19:12;0.70;;;0.70;;
2892;SDS011;1456;51.840;12.184;2023-04-25T04:21:38;0.30;;;0.30;;
2892;SDS011;1456;51.840;12.184;2023-04-25T04:24:05;1.40;;;0.80;;
2892;SDS011;1456;51.840;12.184;2023-04-25T04:26:36;1.13;;;0.43;;
2892;SDS011;1456;51.840;12.184;2023-04-25T04:29:03;2.00;;;0.60;;
2892;SDS011;1456;51.840;12.184;2023-04-25T04:31:29;0.90;;;0.90;;
2892;SDS011;1456;51.840;12.184;2023-04-25T04:33:55;0.70;;;0.70;;
2892;SDS011;1456;51.840;12.184;2023-04-25T04:36:22;1.03;;;1.03;;
2892;SDS011;1456;51.840;12.184;2023-04-25T04:38:48;0.57;;;0.57;;
2892;SDS011;1456;51.840;12.184;2023-04-25T04:41:14;0.43;;;0.27;;
2892;SDS011;1456;51.840;12.184;2023-04-25T04:43:39;1.13;;;0.83;;
2892;SDS011;1456;51.840;12.184;2023-04-25T04:48:37;1.07;;;0.40;;
2892;SDS011;1456;51.840;12.184;2023-04-25T04:51:05;0.30;;;0.30;;
2892;SDS011;1456;51.840;12.184;2023-04-25T04:53:31;14.07;;;1.20;;
2892;SDS011;1456;51.840;12.184;2023-04-25T04:55:57;4.50;;;1.07;;
2892;SDS011;1456;51.840;12.184;2023-04-25T04:58:23;0.47;;;0.43;;
2892;SDS011;1456;51.840;12.184;2023-04-25T05:00:49;1.53;;;1.43;;
2892;SDS011;1456;51.840;12.184;2023-04-25T05:03:15;0.37;;;0.27;;
2892;SDS011;1456;51.840;12.184;2023-04-25T05:05:41;1.97;;;0.87;;
2892;SDS011;1456;51.840;12.184;2023-04-25T05:08:14;1.63;;;1.03;;
2892;SDS011;1456;51.840;12.184;2023-04-25T05:10:41;0.90;;;0.90;;
2892;SDS011;1456;51.840;12.184;2023-04-25T05:13:07;0.50;;;0.50;;
2892;SDS011;1456;51.840;12.184;2023-04-25T05:15:34;0.40;;;0.40;;
2892;SDS011;1456;51.840;12.184;2023-04-25T05:18:03;0.90;;;0.50;;
2892;SDS011;1456;51.840;12.184;2023-04-25T05:23:02;1.00;;;1.00;;
2892;SDS011;1456;51.840;12.184;2023-04-25T05:25:29;1.20;;;1.20;;
2892;SDS011;1456;51.840;12.184;2023-04-25T05:27:55;0.30;;;0.30;;
2892;SDS011;1456;51.840;12.184;2023-04-25T05:32:54;1.00;;;0.87;;
2892;SDS011;1456;51.840;12.184;2023-04-25T05:35:21;1.63;;;1.53;;
2892;SDS011;1456;51.840;12.184;2023-04-25T05:37:49;0.70;;;0.70;;
2892;SDS011;1456;51.840;12.184;2023-04-25T05:40:16;0.50;;;0.50;;
2892;SDS011;1456;51.840;12.184;2023-04-25T05:42:43;2.17;;;1.07;;
2892;SDS011;1456;51.840;12.184;2023-04-25T05:45:09;0.40;;;0.30;;
2892;SDS011;1456;51.840;12.184;2023-04-25T05:47:35;0.40;;;0.37;;
2892;SDS011;1456;51.840;12.184;2023-04-25T05:50:02;0.70;;;0.63;;
2892;SDS011;1456;51.840;12.184;2023-04-25T05:52:28;11.80;;;0.70;;
2892;SDS011;1456;51.840;12.184;2023-04-25T05:54:54;1.23;;;0.87;;
2892;SDS011;1456;51.840;12.184;2023-04-25T05:57:23;0.87;;;0.87;;
2892;SDS011;1456;51.840;12.184;2023-04-25T05:59:51;1.03;;;1.03;;
2892;SDS011;1456;51.840;12.184;2023-04-25T06:02:25;0.93;;;0.93;;
2892;SDS011;1456;51.840;12.184;2023-04-25T06:04:53;1.23;;;1.07;;
2892;SDS011;1456;51.840;12.184;2023-04-25T06:07:20;0.90;;;0.90;;
2892;SDS011;1456;51.840;12.184;2023-04-25T06:09:51;0.57;;;0.57;;
2892;SDS011;1456;51.840;12.184;2023-04-25T06:12:18;0.40;;;0.33;;
2892;SDS011;1456;51.840;12.184;2023-04-25T06:14:44;0.50;;;0.50;;
2892;SDS011;1456;51.840;12.184;2023-04-25T06:17:11;1.90;;;1.37;;
2892;SDS011;1456;51.840;12.184;2023-04-25T06:19:37;0.60;;;0.60;;
2892;SDS011;1456;51.840;12.184;2023-04-25T06:22:07;0.97;;;0.40;;
2892;SDS011;1456;51.840;12.184;2023-04-25T06:24:33;2.73;;;1.03;;
2892;SDS011;1456;51.840;12.184;2023-04-25T06:27:00;0.40;;;0.30;;
2892;SDS011;1456;51.840;12.184;2023-04-25T06:29:25;0.50;;;0.50;;
2892;SDS011;1456;51.840;12.184;2023-04-25T06:31:53;0.40;;;0.40;;
2892;SDS011;1456;51.840;12.184;2023-04-25T06:34:19;0.77;;;0.70;;
2892;SDS011;1456;51.840;12.184;2023-04-25T06:36:45;1.30;;;0.67;;
2892;SDS011;1456;51.840;12.184;2023-04-25T06:41:40;1.93;;;1.43;;
2892;SDS011;1456;51.840;12.184;2023-04-25T06:44:12;1.00;;;1.00;;
2892;SDS011;1456;51.840;12.184;2023-04-25T06:49:10;0.30;;;0.30;;
2892;SDS011;1456;51.840;12.184;2023-04-25T06:54:06;0.90;;;0.90;;
2892;SDS011;1456;51.840;12.184;2023-04-25T06:59:04;0.40;;;0.40;;
2892;SDS011;1456;51.840;12.184;2023-04-25T07:01:29;0.50;;;0.50;;
2892;SDS011;1456;51.840;12.184;2023-04-25T07:03:55;0.40;;;0.33;;
2892;SDS011;1456;51.840;12.184;2023-04-25T07:06:21;0.40;;;0.30;;
2892;SDS011;1456;51.840;12.184;2023-04-25T07:11:16;1.60;;;1.50;;
2892;SDS011;1456;51.840;12.184;2023-04-25T07:13:44;0.30;;;0.30;;
2892;SDS011;1456;51.840;12.184;2023-04-25T07:16:10;2.53;;;2.33;;
2892;SDS011;1456;51.840;12.184;2023-04-25T07:21:09;0.87;;;0.60;;
2892;SDS011;1456;51.840;12.184;2023-04-25T07:23:39;2.87;;;2.13;;
2892;SDS011;1456;51.840;12.184;2023-04-25T07:26:06;0.30;;;0.20;;
2892;SDS011;1456;51.840;12.184;2023-04-25T07:28:33;37.20;;;2.83;;
2892;SDS011;1456;51.840;12.184;2023-04-25T07:30:59;0.50;;;0.50;;
2892;SDS011;1456;51.840;12.184;2023-04-25T07:33:26;1.73;;;1.40;;
2892;SDS011;1456;51.840;12.184;2023-04-25T07:36:02;1.47;;;0.90;;
2892;SDS011;1456;51.840;12.184;2023-04-25T07:40:58;1.57;;;0.47;;
2892;SDS011;1456;51.840;12.184;2023-04-25T07:46:00;0.93;;;0.70;;
2892;SDS011;1456;51.840;12.184;2023-04-25T07:48:26;0.30;;;0.30;;
2892;SDS011;1456;51.840;12.184;2023-04-25T07:50:52;0.50;;;0.50;;
2892;SDS011;1456;51.840;12.184;2023-04-25T07:53:30;0.70;;;0.70;;
2892;SDS011;1456;51.840;12.184;2023-04-25T07:55:58;0.40;;;0.40;;
2892;SDS011;1456;51.840;12.184;2023-04-25T07:58:24;0.80;;;0.80;;
2892;SDS011;1456;51.840;12.184;2023-04-25T08:00:49;1.90;;;1.30;;
2892;SDS011;1456;51.840;12.184;2023-04-25T08:03:15;0.77;;;0.77;;
2892;SDS011;1456;51.840;12.184;2023-04-25T08:05:41;2.17;;;1.97;;
2892;SDS011;1456;51.840;12.184;2023-04-25T08:08:12;2.00;;;0.93;;
2892;SDS011;1456;51.840;12.184;2023-04-25T08:10:39;0.80;;;0.80;;
2892;SDS011;1456;51.840;12.184;2023-04-25T08:13:07;6.03;;;2.00;;
2892;SDS011;1456;51.840;12.184;2023-04-25T08:15:34;0.50;;;0.50;;
2892;SDS011;1456;51.840;12.184;2023-04-25T08:18:01;0.83;;;0.83;;
2892;SDS011;1456;51.840;12.184;2023-04-25T08:20:29;2.40;;;2.30;;
2892;SDS011;1456;51.840;12.184;2023-04-25T08:23:01;0.60;;;0.60;;
2892;SDS011;1456;51.840;12.184;2023-04-25T08:25:34;0.40;;;0.37;;
2892;SDS011;1456;51.840;12.184;2023-04-25T08:27:59;2.30;;;2.20;;
2892;SDS011;1456;51.840;12.184;2023-04-25T08:30:27;6.50;;;2.47;;
2892;SDS011;1456;51.840;12.184;2023-04-25T08:32:53;0.70;;;0.70;;
2892;SDS011;1456;51.840;12.184;2023-04-25T08:35:20;2.40;;;1.07;;
2892;SDS011;1456;51.840;12.184;2023-04-25T08:37:47;1.43;;;1.33;;
2892;SDS011;1456;51.840;12.184;2023-04-25T08:40:16;0.70;;;0.70;;
2892;SDS011;1456;51.840;12.184;2023-04-25T08:42:48;1.90;;;1.90;;
2892;SDS011;1456;51.840;12.184;2023-04-25T08:45:16;1.60;;;1.53;;
2892;SDS011;1456;51.840;12.184;2023-04-25T08:50:14;2.50;;;2.50;;
2892;SDS011;1456;51.840;12.184;2023-04-25T08:55:17;2.53;;;2.53;;
2892;SDS011;1456;51.840;12.184;2023-04-25T08:57:45;3.90;;;3.90;;
2892;SDS011;1456;51.840;12.184;2023-04-25T09:00:17;3.20;;;3.17;;
2892;SDS011;1456;51.840;12.184;2023-04-25T09:02:44;23.77;;;4.70;;
2892;SDS011;1456;51.840;12.184;2023-04-25T09:05:12;3.60;;;3.60;;
2892;SDS011;1456;51.840;12.184;2023-04-25T09:07:38;3.70;;;3.53;;
2892;SDS011;1456;51.840;12.184;2023-04-25T09:10:04;3.53;;;3.53;;
2892;SDS011;1456;51.840;12.184;2023-04-25T09:12:30;4.20;;;4.10;;
2892;SDS011;1456;51.840;12.184;2023-04-25T09:15:04;4.10;;;4.00;;
2892;SDS011;1456;51.840;12.184;2023-04-25T09:17:33;5.13;;;5.03;;
2892;SDS011;1456;51.840;12.184;2023-04-25T09:20:09;5.07;;;4.70;;
2892;SDS011;1456;51.840;12.184;2023-04-25T09:22:37;3.93;;;3.93;;
2892;SDS011;1456;51.840;12.184;2023-04-25T09:25:07;5.07;;;4.97;;
2892;SDS011;1456;51.840;12.184;2023-04-25T09:27:48;5.00;;;5.00;;
2892;SDS011;1456;51.840;12.184;2023-04-25T09:30:28;4.60;;;4.60;;
2892;SDS011;1456;51.840;12.184;2023-04-25T09:33:05;5.10;;;5.10;;
2892;SDS011;1456;51.840;12.184;2023-04-25T09:35:40;5.13;;;5.03;;
2892;SDS011;1456;51.840;12.184;2023-04-25T09:38:12;5.90;;;5.80;;
2892;SDS011;1456;51.840;12.184;2023-04-25T09:40:40;5.40;;;4.97;;
2892;SDS011;1456;51.840;12.184;2023-04-25T09:43:18;5.20;;;5.10;;
2892;SDS011;1456;51.840;12.184;2023-04-25T09:45:46;4.57;;;4.50;;
2892;SDS011;1456;51.840;12.184;2023-04-25T09:48:15;4.83;;;4.83;;
2892;SDS011;1456;51.840;12.184;2023-04-25T09:50:43;4.90;;;4.90;;
2892;SDS011;1456;51.840;12.184;2023-04-25T09:53:11;6.97;;;6.50;;
2892;SDS011;1456;51.840;12.184;2023-04-25T09:55:36;6.00;;;5.70;;
2892;SDS011;1456;51.840;12.184;2023-04-25T09:58:05;5.20;;;5.20;;
2892;SDS011;1456;51.840;12.184;2023-04-25T10:00:32;5.77;;;5.67;;
2892;SDS011;1456;51.840;12.184;2023-04-25T10:03:00;4.93;;;4.93;;
2892;SDS011;1456;51.840;12.184;2023-04-25T10:08:02;6.53;;;6.20;;
2892;SDS011;1456;51.840;12.184;2023-04-25T10:10:32;5.10;;;5.00;;
2892;SDS011;1456;51.840;12.184;2023-04-25T10:13:08;5.67;;;5.67;;
2892;SDS011;1456;51.840;12.184;2023-04-25T10:15:34;5.80;;;5.60;;
2892;SDS011;1456;51.840;12.184;2023-04-25T10:18:04;5.40;;;5.30;;
2892;SDS011;1456;51.840;12.184;2023-04-25T10:20:34;7.07;;;6.30;;
2892;SDS011;1456;51.840;12.184;2023-04-25T10:23:16;8.07;;;7.60;;
2892;SDS011;1456;51.840;12.184;2023-04-25T10:25:42;5.97;;;5.87;;
2892;SDS011;1456;51.840;12.184;2023-04-25T10:28:09;5.63;;;5.63;;
2892;SDS011;1456;51.840;12.184;2023-04-25T10:30:36;9.93;;;9.83;;
2892;SDS011;1456;51.840;12.184;2023-04-25T10:33:02;14.57;;;13.80;;
2892;SDS011;1456;51.840;12.184;2023-04-25T10:35:42;11.27;;;11.00;;
2892;SDS011;1456;51.840;12.184;2023-04-25T10:41:01;10.63;;;10.43;;
2892;SDS011;1456;51.840;12.184;2023-04-25T10:43:41;9.37;;;9.27;;
2892;SDS011;1456;51.840;12.184;2023-04-25T10:46:17;9.97;;;9.87;;
2892;SDS011;1456;51.840;12.184;2023-04-25T10:49:00;10.37;;;10.27;;
2892;SDS011;1456;51.840;12.184;2023-04-25T10:51:27;6.37;;;6.27;;
2892;SDS011;1456;51.840;12.184;2023-04-25T10:54:02;7.00;;;6.90;;
2892;SDS011;1456;51.840;12.184;2023-04-25T10:56:41;7.23;;;7.13;;
2892;SDS011;1456;51.840;12.184;2023-04-25T10:59:14;7.20;;;7.10;;
2892;SDS011;1456;51.840;12.184;2023-04-25T11:01:44;6.93;;;6.83;;
2892;SDS011;1456;51.840;12.184;2023-04-25T11:09:41;14.87;;;14.07;;
2892;SDS011;1456;51.840;12.184;2023-04-25T11:12:12;14.87;;;14.57;;
2892;SDS011;1456;51.840;12.184;2023-04-25T11:14:48;12.83;;;12.60;;
2892;SDS011;1456;51.840;12.184;2023-04-25T11:17:24;12.67;;;11.90;;
2892;SDS011;1456;51.840;12.184;2023-04-25T11:19:51;8.30;;;8.20;;
2892;SDS011;1456;51.840;12.184;2023-04-25T11:22:17;9.47;;;9.03;;
2892;SDS011;1456;51.840;12.184;2023-04-25T11:24:42;8.53;;;8.33;;
2892;SDS011;1456;51.840;12.184;2023-04-25T11:27:09;8.93;;;8.63;;
2892;SDS011;1456;51.840;12.184;2023-04-25T11:29:35;9.67;;;9.40;;
2892;SDS011;1456;51.840;12.184;2023-04-25T11:34:38;8.90;;;8.70;;
2892;SDS011;1456;51.840;12.184;2023-04-25T11:37:09;8.10;;;8.00;;
2892;SDS011;1456;51.840;12.184;2023-04-25T11:39:38;8.70;;;8.40;;
2892;SDS011;1456;51.840;12.184;2023-04-25T11:44:38;8.50;;;8.40;;
2892;SDS011;1456;51.840;12.184;2023-04-25T11:49:37;8.67;;;8.57;;
2892;SDS011;1456;51.840;12.184;2023-04-25T11:52:06;8.67;;;8.57;;
2892;SDS011;1456;51.840;12.184;2023-04-25T11:54:34;8.30;;;8.20;;
2892;SDS011;1456;51.840;12.184;2023-04-25T11:57:03;9.17;;;9.07;;
2892;SDS011;1456;51.840;12.184;2023-04-25T11:59:38;15.90;;;15.60;;
2892;SDS011;1456;51.840;12.184;2023-04-25T12:02:04;19.30;;;18.90;;
2892;SDS011;1456;51.840;12.184;2023-04-25T12:04:34;14.30;;;14.10;;
2892;SDS011;1456;51.840;12.184;2023-04-25T12:06:59;15.77;;;15.37;;
2892;SDS011;1456;51.840;12.184;2023-04-25T12:09:32;14.73;;;14.33;;
2892;SDS011;1456;51.840;12.184;2023-04-25T12:11:59;13.73;;;13.53;;
2892;SDS011;1456;51.840;12.184;2023-04-25T12:14:31;13.50;;;13.20;;
2892;SDS011;1456;51.840;12.184;2023-04-25T12:17:00;14.47;;;14.27;;
2892;SDS011;1456;51.840;12.184;2023-04-25T12:19:35;13.90;;;13.70;;
2892;SDS011;1456;51.840;12.184;2023-04-25T12:22:02;14.33;;;14.03;;
2892;SDS011;1456;51.840;12.184;2023-04-25T12:24:44;14.00;;;13.80;;
2892;SDS011;1456;51.840;12.184;2023-04-25T12:27:10;14.07;;;13.77;;
2892;SDS011;1456;51.840;12.184;2023-04-25T12:29:36;13.20;;;13.00;;
2892;SDS011;1456;51.840;12.184;2023-04-25T12:32:03;9.50;;;9.40;;
2892;SDS011;1456;51.840;12.184;2023-04-25T12:34:29;9.70;;;9.60;;
2892;SDS011;1456;51.840;12.184;2023-04-25T12:36:59;15.33;;;14.73;;
2892;SDS011;1456;51.840;12.184;2023-04-25T12:39:25;14.10;;;13.90;;
2892;SDS011;1456;51.840;12.184;2023-04-25T12:41:52;15.20;;;14.90;;
2892;SDS011;1456;51.840;12.184;2023-04-25T12:44:28;15.60;;;15.30;;
2892;SDS011;1456;51.840;12.184;2023-04-25T12:46:59;15.50;;;15.20;;
2892;SDS011;1456;51.840;12.184;2023-04-25T12:49:25;17.77;;;16.03;;
2892;SDS011;1456;51.840;12.184;2023-04-25T12:51:55;15.43;;;15.03;;
2892;SDS011;1456;51.840;12.184;2023-04-25T12:56:52;14.90;;;14.50;;
2892;SDS011;1456;51.840;12.184;2023-04-25T12:59:20;15.30;;;15.00;;
2892;SDS011;1456;51.840;12.184;2023-04-25T13:01:46;14.70;;;14.40;;
2892;SDS011;1456;51.840;12.184;2023-04-25T13:04:12;14.67;;;14.27;;
2892;SDS011;1456;51.840;12.184;2023-04-25T13:06:37;8.80;;;8.70;;
2892;SDS011;1456;51.840;12.184;2023-04-25T13:09:03;16.30;;;16.00;;
2892;SDS011;1456;51.840;12.184;2023-04-25T13:11:29;16.90;;;16.60;;
2892;SDS011;1456;51.840;12.184;2023-04-25T13:18:57;17.57;;;17.20;;
2892;SDS011;1456;51.840;12.184;2023-04-25T13:21:23;15.90;;;15.60;;
2892;SDS011;1456;51.840;12.184;2023-04-25T13:23:48;9.50;;;9.40;;
2892;SDS011;1456;51.840;12.184;2023-04-25T13:26:14;12.70;;;12.50;;
2892;SDS011;1456;51.840;12.184;2023-04-25T13:28:46;15.37;;;15.00;;
2892;SDS011;1456;51.840;12.184;2023-04-25T13:31:12;15.93;;;15.20;;
2892;SDS011;1456;51.840;12.184;2023-04-25T13:36:06;14.80;;;14.50;;
2892;SDS011;1456;51.840;12.184;2023-04-25T13:38:32;13.93;;;13.73;;
2892;SDS011;1456;51.840;12.184;2023-04-25T13:40:57;13.13;;;12.93;;
2892;SDS011;1456;51.840;12.184;2023-04-25T13:43:23;15.33;;;14.80;;
2892;SDS011;1456;51.840;12.184;2023-04-25T13:48:19;13.27;;;13.00;;
2892;SDS011;1456;51.840;12.184;2023-04-25T13:50:45;14.80;;;14.40;;
2892;SDS011;1456;51.840;12.184;2023-04-25T13:53:11;13.70;;;13.50;;
2892;SDS011;1456;51.840;12.184;2023-04-25T13:55:38;13.30;;;13.10;;
2892;SDS011;1456;51.840;12.184;2023-04-25T14:00:38;15.13;;;14.83;;
2892;SDS011;1456;51.840;12.184;2023-04-25T14:03:08;14.90;;;14.60;;
2892;SDS011;1456;51.840;12.184;2023-04-25T14:05:36;13.37;;;13.17;;
2892;SDS011;1456;51.840;12.184;2023-04-25T14:08:09;13.67;;;13.47;;
2892;SDS011;1456;51.840;12.184;2023-04-25T14:10:38;15.57;;;15.27;;
2892;SDS011;1456;51.840;12.184;2023-04-25T14:13:05;14.77;;;14.57;;
2892;SDS011;1456;51.840;12.184;2023-04-25T14:15:33;16.30;;;16.00;;
2892;SDS011;1456;51.840;12.184;2023-04-25T14:17:59;14.43;;;14.23;;
2892;SDS011;1456;51.840;12.184;2023-04-25T14:20:25;14.83;;;14.53;;
2892;SDS011;1456;51.840;12.184;2023-04-25T14:22:52;13.97;;;13.77;;
2892;SDS011;1456;51.840;12.184;2023-04-25T14:25:19;8.50;;;8.30;;
2892;SDS011;1456;51.840;12.184;2023-04-25T14:27:46;16.63;;;16.33;;
2892;SDS011;1456;51.840;12.184;2023-04-25T14:30:15;15.60;;;15.30;;
2892;SDS011;1456;51.840;12.184;2023-04-25T14:32:41;16.57;;;16.27;;
2892;SDS011;1456;51.840;12.184;2023-04-25T14:35:08;16.73;;;16.13;;
2892;SDS011;1456;51.840;12.184;2023-04-25T14:37:37;16.73;;;16.37;;
2892;SDS011;1456;51.840;12.184;2023-04-25T14:40:12;18.00;;;17.03;;
2892;SDS011;1456;51.840;12.184;2023-04-25T14:42:40;10.60;;;10.30;;
2892;SDS011;1456;51.840;12.184;2023-04-25T14:45:06;17.73;;;17.33;;
2892;SDS011;1456;51.840;12.184;2023-04-25T14:47:34;18.93;;;18.53;;
2892;SDS011;1456;51.840;12.184;2023-04-25T14:50:03;18.90;;;18.50;;
2892;SDS011;1456;51.840;12.184;2023-04-25T14:52:33;10.30;;;10.10;;
2892;SDS011;1456;51.840;12.184;2023-04-25T14:55:00;17.80;;;17.50;;
2892;SDS011;1456;51.840;12.184;2023-04-25T14:57:35;16.97;;;16.67;;
2892;SDS011;1456;51.840;12.184;2023-04-25T15:00:04;18.53;;;18.17;;
2892;SDS011;1456;51.840;12.184;2023-04-25T15:02:35;15.77;;;15.50;;
2892;SDS011;1456;51.840;12.184;2023-04-25T15:05:01;17.03;;;16.73;;
2892;SDS011;1456;51.840;12.184;2023-04-25T15:07:28;17.87;;;17.57;;
2892;SDS011;1456;51.840;12.184;2023-04-25T15:09:54;16.37;;;16.07;;
2892;SDS011;1456;51.840;12.184;2023-04-25T15:12:21;16.77;;;16.47;;
2892;SDS011;1456;51.840;12.184;2023-04-25T15:14:53;9.50;;;9.40;;
2892;SDS011;1456;51.840;12.184;2023-04-25T15:17:21;9.63;;;9.53;;
2892;SDS011;1456;51.840;12.184;2023-04-25T15:19:47;18.10;;;17.70;;
2892;SDS011;1456;51.840;12.184;2023-04-25T15:22:13;18.10;;;17.70;;
2892;SDS011;1456;51.840;12.184;2023-04-25T15:24:40;20.60;;;20.10;;
2892;SDS011;1456;51.840;12.184;2023-04-25T15:27:05;20.07;;;19.67;;
2892;SDS011;1456;51.840;12.184;2023-04-25T15:29:32;18.93;;;18.53;;
2892;SDS011;1456;51.840;12.184;2023-04-25T15:31:58;17.07;;;16.77;;
2892;SDS011;1456;51.840;12.184;2023-04-25T15:34:24;18.80;;;18.40;;
2892;SDS011;1456;51.840;12.184;2023-04-25T15:36:51;20.80;;;20.30;;
2892;SDS011;1456;51.840;12.184;2023-04-25T15:39:17;21.80;;;21.30;;
2892;SDS011;1456;51.840;12.184;2023-04-25T15:41:43;20.03;;;19.43;;
2892;SDS011;1456;51.840;12.184;2023-04-25T15:44:09;19.17;;;18.77;;
2892;SDS011;1456;51.840;12.184;2023-04-25T15:46:40;19.00;;;18.60;;
2892;SDS011;1456;51.840;12.184;2023-04-25T15:49:08;17.67;;;17.37;;
2892;SDS011;1456;51.840;12.184;2023-04-25T15:51:35;9.30;;;9.20;;
2892;SDS011;1456;51.840;12.184;2023-04-25T15:54:01;20.67;;;20.27;;
2892;SDS011;1456;51.840;12.184;2023-04-25T15:56:30;17.33;;;17.03;;
2892;SDS011;1456;51.840;12.184;2023-04-25T15:58:56;18.87;;;18.47;;
2892;SDS011;1456;51.840;12.184;2023-04-25T16:01:22;19.63;;;19.23;;
2892;SDS011;1456;51.840;12.184;2023-04-25T16:03:50;15.27;;;14.97;;
2892;SDS011;1456;51.840;12.184;2023-04-25T16:06:16;12.70;;;12.50;;
2892;SDS011;1456;51.840;12.184;2023-04-25T16:08:43;13.93;;;13.50;;
2892;SDS011;1456;51.840;12.184;2023-04-25T16:11:09;14.70;;;14.40;;